Time;durP1;ratioP1;P1;durP2;ratioP2;P2;SDS_P1;SDS_P2;PMS_P1;PMS_P2;Temp;Humidity;BMP_temperature;BMP_pressure;BME280_temperature;BME280_humidity;BME280_pressure;Samples;Min_cycle;Max_cycle;Signal;HPM_P1;HPM_P2
2023/03/29 00:01:29;;;;;;;0.10;0.10;;;;;;;;;;5093023;28;20032;-77
2023/03/29 00:03:56;;;;;;;0.10;0.10;;;;;;;;;;5091576;28;20093;-76
2023/03/29 00:06:22;;;;;;;2.67;2.58;;;;;;;;;;5074807;28;20435;-76
2023/03/29 00:08:52;;;;;;;0.10;0.10;;;;;;;;;;5092777;28;20028;-76
2023/03/29 00:11:18;;;;;;;0.20;0.20;;;;;;;;;;5074336;28;20074;-75
2023/03/29 00:13:44;;;;;;;0.10;0.10;;;;;;;;;;5092849;28;20063;-76
2023/03/29 00:16:11;;;;;;;0.10;0.10;;;;;;;;;;5089850;28;20024;-76
2023/03/29 00:18:37;;;;;;;0.25;0.25;;;;;;;;;;5092952;28;20028;-76
2023/03/29 00:21:03;;;;;;;0.25;0.25;;;;;;;;;;5074561;28;20472;-78
2023/03/29 00:23:28;;;;;;;0.10;0.10;;;;;;;;;;5092631;28;20024;-78
2023/03/29 00:25:54;;;;;;;0.10;0.10;;;;;;;;;;5092165;28;20039;-76
2023/03/29 00:28:19;;;;;;;0.10;0.10;;;;;;;;;;5057772;28;20053;-76
2023/03/29 00:30:45;;;;;;;0.10;0.10;;;;;;;;;;5074441;28;20024;-76
2023/03/29 00:33:11;;;;;;;0.95;0.95;;;;;;;;;;5074138;28;20028;-74
2023/03/29 00:35:37;;;;;;;0.10;0.10;;;;;;;;;;5091508;28;20505;-76
2023/03/29 00:38:05;;;;;;;0.10;0.10;;;;;;;;;;5092399;28;20055;-75
2023/03/29 00:40:30;;;;;;;0.15;0.15;;;;;;;;;;5092205;28;20036;-74
2023/03/29 00:42:57;;;;;;;0.25;0.25;;;;;;;;;;5077743;28;20422;-74
2023/03/29 00:45:29;;;;;;;1.40;1.33;;;;;;;;;;5095994;28;20046;-73
2023/03/29 00:48:01;;;;;;;0.20;0.20;;;;;;;;;;5077669;28;20127;-74
2023/03/29 00:50:35;;;;;;;1.88;1.35;;;;;;;;;;5060994;28;20032;-75
2023/03/29 00:53:11;;;;;;;0.10;0.10;;;;;;;;;;5095599;28;20510;-75
2023/03/29 00:55:41;;;;;;;0.10;0.10;;;;;;;;;;5077236;28;20028;-74
2023/03/29 00:58:07;;;;;;;;;;;;;;;;;;5096070;28;20487;-76
2023/03/29 01:00:34;;;;;;;0.10;0.10;;;;;;;;;;5077710;28;19954;-76
2023/03/29 01:03:00;;;;;;;0.20;0.20;;;;;;;;;;5077521;28;20648;-75
2023/03/29 01:05:31;;;;;;;0.00;0.00;;;;;;;;;;5094041;28;20032;-75
2023/03/29 01:07:59;;;;;;;1.17;1.08;;;;;;;;;;5059488;28;20040;-76
2023/03/29 01:10:28;;;;;;;0.10;0.10;;;;;;;;;;5077531;28;20032;-75
2023/03/29 01:12:56;;;;;;;0.10;0.10;;;;;;;;;;5060804;28;20127;-75
2023/03/29 01:15:27;;;;;;;0.15;0.15;;;;;;;;;;5077330;28;20040;-75
2023/03/29 01:17:54;;;;;;;0.10;0.10;;;;;;;;;;5059662;28;20119;-76
2023/03/29 01:20:21;;;;;;;0.10;0.10;;;;;;;;;;5095226;28;20491;-75
2023/03/29 01:22:55;;;;;;;0.10;0.10;;;;;;;;;;5095419;28;20843;-75
2023/03/29 01:25:30;;;;;;;0.47;0.45;;;;;;;;;;5095504;28;20058;-76
2023/03/29 01:28:01;;;;;;;0.10;0.10;;;;;;;;;;5077130;28;20050;-75
2023/03/29 01:30:37;;;;;;;0.10;0.10;;;;;;;;;;5095260;28;20066;-76
2023/03/29 01:33:06;;;;;;;0.20;0.20;;;;;;;;;;5095406;28;20055;-76
2023/03/29 01:35:43;;;;;;;0.10;0.10;;;;;;;;;;5077029;28;20039;-76
2023/03/29 01:38:18;;;;;;;0.85;0.75;;;;;;;;;;5095075;28;20066;-75
2023/03/29 01:40:43;;;;;;;1.17;0.70;;;;;;;;;;5076946;28;20036;-75
2023/03/29 01:43:20;;;;;;;0.32;0.32;;;;;;;;;;5087805;28;20365;-76
2023/03/29 01:45:48;;;;;;;0.05;0.05;;;;;;;;;;5081730;28;20048;-76
2023/03/29 01:48:32;;;;;;;0.20;0.20;;;;;;;;;;5075504;28;20043;-76
2023/03/29 01:51:03;;;;;;;0.10;0.10;;;;;;;;;;5060169;28;20123;-76
2023/03/29 01:53:32;;;;;;;0.45;0.45;;;;;;;;;;5076725;28;20039;-76
2023/03/29 01:56:10;;;;;;;0.88;0.88;;;;;;;;;;5094722;28;20425;-76
2023/03/29 01:58:38;;;;;;;1.30;1.17;;;;;;;;;;5076731;28;20489;-76
2023/03/29 02:01:04;;;;;;;0.20;0.20;;;;;;;;;;5059777;28;20044;-78
2023/03/29 02:03:32;;;;;;;0.10;0.10;;;;;;;;;;5094846;28;20491;-76
2023/03/29 02:05:59;;;;;;;0.10;0.10;;;;;;;;;;5059808;28;20043;-76
2023/03/29 02:08:27;;;;;;;0.20;0.20;;;;;;;;;;5076495;28;20054;-75
2023/03/29 02:10:52;;;;;;;0.17;0.17;;;;;;;;;;5093318;28;20032;-76
2023/03/29 02:13:18;;;;;;;0.57;0.57;;;;;;;;;;5094613;28;20016;-76
2023/03/29 02:15:44;;;;;;;0.10;0.10;;;;;;;;;;5076628;28;20552;-76
2023/03/29 02:18:10;;;;;;;0.55;0.40;;;;;;;;;;5076399;28;20064;-76
2023/03/29 02:20:37;;;;;;;0.10;0.10;;;;;;;;;;5094463;28;20435;-76
2023/03/29 02:23:07;;;;;;;3.92;3.25;;;;;;;;;;5075316;28;20260;-75
2023/03/29 02:25:33;;;;;;;0.10;0.10;;;;;;;;;;5076130;28;20036;-77
2023/03/29 02:27:59;;;;;;;0.32;0.32;;;;;;;;;;5076137;28;20527;-77
2023/03/29 02:30:28;;;;;;;0.03;0.03;;;;;;;;;;5076249;28;20038;-77
2023/03/29 02:32:59;;;;;;;0.10;0.10;;;;;;;;;;5094160;28;20032;-76
2023/03/29 02:35:38;;;;;;;0.40;0.40;;;;;;;;;;5093937;28;20036;-76
2023/03/29 02:38:06;;;;;;;0.10;0.10;;;;;;;;;;5093135;28;20032;-75
2023/03/29 02:40:33;;;;;;;0.10;0.10;;;;;;;;;;5094245;28;20040;-74
2023/03/29 02:43:00;;;;;;;0.55;0.55;;;;;;;;;;5094531;28;20048;-74
2023/03/29 02:45:26;;;;;;;0.10;0.10;;;;;;;;;;5076106;28;20043;-74
2023/03/29 02:47:53;;;;;;;0.10;0.10;;;;;;;;;;5059048;28;20031;-75
2023/03/29 02:50:21;;;;;;;0.30;0.30;;;;;;;;;;5072876;28;20039;-75
2023/03/29 02:52:58;;;;;;;0.20;0.20;;;;;;;;;;5042132;28;20032;-75
2023/03/29 02:55:25;;;;;;;0.10;0.10;;;;;;;;;;5050321;28;20036;-75
2023/03/29 02:57:50;;;;;;;0.10;0.10;;;;;;;;;;5059250;28;20036;-74
2023/03/29 03:00:18;;;;;;;0.57;0.57;;;;;;;;;;5075556;28;20443;-75
2023/03/29 03:02:44;;;;;;;0.10;0.10;;;;;;;;;;5090031;28;20034;-76
2023/03/29 03:05:10;;;;;;;1.05;1.00;;;;;;;;;;5071283;28;20126;-76
2023/03/29 03:07:36;;;;;;;0.10;0.10;;;;;;;;;;5089978;28;20118;-76
2023/03/29 03:10:02;;;;;;;0.10;0.10;;;;;;;;;;5071741;28;20028;-78
2023/03/29 03:12:28;;;;;;;0.10;0.10;;;;;;;;;;5055807;28;20734;-76
2023/03/29 03:14:53;;;;;;;0.10;0.10;;;;;;;;;;5090010;28;20056;-77
2023/03/29 03:17:19;;;;;;;0.17;0.17;;;;;;;;;;5071525;28;20040;-76
2023/03/29 03:19:46;;;;;;;0.10;0.10;;;;;;;;;;5071346;28;20036;-77
2023/03/29 03:22:12;;;;;;;0.10;0.10;;;;;;;;;;5070920;28;20024;-76
2023/03/29 03:24:37;;;;;;;0.10;0.10;;;;;;;;;;5071197;28;20032;-76
2023/03/29 03:27:03;;;;;;;0.10;0.10;;;;;;;;;;5071093;28;20058;-76
2023/03/29 03:29:29;;;;;;;0.13;0.13;;;;;;;;;;5054065;28;20153;-75
2023/03/29 03:32:03;;;;;;;0.03;0.03;;;;;;;;;;5090004;28;20043;-75
2023/03/29 03:34:49;;;;;;;0.10;0.10;;;;;;;;;;5075216;28;20052;-74
2023/03/29 03:37:14;;;;;;;0.10;0.10;;;;;;;;;;5089105;28;20038;-78
2023/03/29 03:39:40;;;;;;;0.10;0.10;;;;;;;;;;5054853;28;20042;-77
2023/03/29 03:42:08;;;;;;;0.20;0.20;;;;;;;;;;5072003;28;20418;-77
2023/03/29 03:44:38;;;;;;;0.03;0.03;;;;;;;;;;5054764;28;20127;-78
2023/03/29 03:47:27;;;;;;;0.10;0.10;;;;;;;;;;5079387;28;20048;-77
2023/03/29 03:49:55;;;;;;;1.95;1.85;;;;;;;;;;5071249;28;20044;-76
2023/03/29 03:52:24;;;;;;;0.10;0.10;;;;;;;;;;5070320;28;20040;-77
2023/03/29 03:54:49;;;;;;;0.80;0.80;;;;;;;;;;5089197;28;20087;-76
2023/03/29 03:57:40;;;;;;;0.10;0.10;;;;;;;;;;5071064;28;20043;-77
2023/03/29 04:00:20;;;;;;;0.20;0.20;;;;;;;;;;5069811;28;20028;-77
2023/03/29 04:03:07;;;;;;;0.22;0.22;;;;;;;;;;5036692;28;20123;-78
2023/03/29 04:05:38;;;;;;;0.52;0.52;;;;;;;;;;5034032;28;20052;-78
2023/03/29 04:08:05;;;;;;;0.10;0.10;;;;;;;;;;5034408;28;20040;-77
2023/03/29 04:10:52;;;;;;;0.25;0.25;;;;;;;;;;5069046;28;20070;-77
2023/03/29 04:13:24;;;;;;;0.08;0.08;;;;;;;;;;5050342;28;20077;-77
2023/03/29 04:16:08;;;;;;;1.85;1.80;;;;;;;;;;5067496;28;20055;-77
2023/03/29 04:18:34;;;;;;;0.10;0.10;;;;;;;;;;5033952;28;20037;-77
2023/03/29 04:20:59;;;;;;;1.13;1.13;;;;;;;;;;5050286;28;20578;-79
2023/03/29 04:23:30;;;;;;;2.38;2.28;;;;;;;;;;5059961;28;20035;-79
2023/03/29 04:25:56;;;;;;;0.00;0.00;;;;;;;;;;5070103;28;20056;-79
2023/03/29 04:28:45;;;;;;;0.17;0.17;;;;;;;;;;5062493;28;20531;-78
2023/03/29 04:31:28;;;;;;;0.38;0.38;;;;;;;;;;5070208;28;20483;-75
2023/03/29 04:34:19;;;;;;;0.15;0.15;;;;;;;;;;5068880;28;20077;-74
2023/03/29 04:36:49;;;;;;;0.10;0.10;;;;;;;;;;5063235;28;20071;-74
2023/03/29 04:39:18;;;;;;;0.10;0.10;;;;;;;;;;5066722;28;20556;-74
2023/03/29 04:41:47;;;;;;;0.10;0.10;;;;;;;;;;5063262;28;20064;-74
2023/03/29 04:44:20;;;;;;;0.10;0.10;;;;;;;;;;5054571;28;20124;-75
2023/03/29 04:46:45;;;;;;;0.10;0.10;;;;;;;;;;5069087;28;20040;-75
2023/03/29 04:49:17;;;;;;;0.10;0.10;;;;;;;;;;5086808;28;20040;-75
2023/03/29 04:51:47;;;;;;;0.10;0.10;;;;;;;;;;5069969;28;20032;-74
2023/03/29 04:54:16;;;;;;;0.10;0.10;;;;;;;;;;5069507;28;20438;-75
2023/03/29 04:57:14;;;;;;;0.10;0.10;;;;;;;;;;5052303;28;20130;-75
2023/03/29 04:59:51;;;;;;;0.10;0.10;;;;;;;;;;5069479;28;20093;-74
2023/03/29 05:02:43;;;;;;;0.00;0.00;;;;;;;;;;5085816;28;20044;-75
2023/03/29 05:05:10;;;;;;;0.85;0.38;;;;;;;;;;5064262;28;20067;-74
2023/03/29 05:07:36;;;;;;;0.00;0.00;;;;;;;;;;5061078;28;20035;-75
2023/03/29 05:10:03;;;;;;;0.68;0.68;;;;;;;;;;5052199;28;20032;-76
2023/03/29 05:12:28;;;;;;;0.20;0.15;;;;;;;;;;5068655;28;20063;-75
2023/03/29 05:14:56;;;;;;;0.20;0.20;;;;;;;;;;5064136;28;20060;-75
2023/03/29 05:17:26;;;;;;;0.00;0.00;;;;;;;;;;5064035;28;20123;-76
2023/03/29 05:19:53;;;;;;;0.00;0.00;;;;;;;;;;5065875;28;20514;-75
2023/03/29 05:22:22;;;;;;;1.65;1.55;;;;;;;;;;5055448;28;20081;-76
2023/03/29 05:24:48;;;;;;;0.10;0.10;;;;;;;;;;5068360;28;20032;-75
2023/03/29 05:27:16;;;;;;;0.10;0.10;;;;;;;;;;5070696;28;20040;-76
2023/03/29 05:29:45;;;;;;;1.30;0.90;;;;;;;;;;5057038;28;20036;-76
2023/03/29 05:32:37;;;;;;;0.10;0.10;;;;;;;;;;5065994;28;20770;-75
2023/03/29 05:35:04;;;;;;;0.00;0.00;;;;;;;;;;5068292;28;20032;-76
2023/03/29 05:37:33;;;;;;;0.10;0.10;;;;;;;;;;5052402;28;20484;-77
2023/03/29 05:40:00;;;;;;;0.10;0.10;;;;;;;;;;5036547;28;20525;-76
2023/03/29 05:42:30;;;;;;;0.10;0.10;;;;;;;;;;5062800;28;20499;-75
2023/03/29 05:44:59;;;;;;;0.10;0.10;;;;;;;;;;5072294;28;20510;-75
2023/03/29 05:47:25;;;;;;;0.10;0.10;;;;;;;;;;5072055;28;20040;-76
2023/03/29 05:49:51;;;;;;;0.00;0.00;;;;;;;;;;5091418;28;20035;-77
2023/03/29 05:52:21;;;;;;;0.10;0.10;;;;;;;;;;5087126;28;20028;-78
2023/03/29 05:54:46;;;;;;;0.10;0.10;;;;;;;;;;5089416;28;20070;-77
2023/03/29 05:57:13;;;;;;;8.95;7.22;;;;;;;;;;5067912;28;20041;-76
2023/03/29 05:59:41;;;;;;;0.10;0.10;;;;;;;;;;5061303;28;20039;-77
2023/03/29 06:02:08;;;;;;;0.00;0.00;;;;;;;;;;5050056;28;20073;-83
2023/03/29 06:04:38;;;;;;;0.10;0.10;;;;;;;;;;5068322;28;20388;-77
2023/03/29 06:07:33;;;;;;;0.10;0.10;;;;;;;;;;5066738;28;20538;-75
2023/03/29 06:10:19;;;;;;;0.10;0.10;;;;;;;;;;5085252;28;20089;-77
2023/03/29 06:12:50;;;;;;;0.10;0.10;;;;;;;;;;5072493;28;20157;-76
2023/03/29 06:15:20;;;;;;;0.10;0.10;;;;;;;;;;5069375;28;20529;-76
2023/03/29 06:17:48;;;;;;;;;;;;;;;;;;5084358;28;20063;-76
2023/03/29 06:20:14;;;;;;;;;;;;;;;;;;5070864;28;19959;-76
2023/03/29 06:22:42;;;;;;;;;;;;;;;;;;5070156;28;19962;-77
2023/03/29 06:25:11;;;;;;;;;;;;;;;;;;5058186;28;19912;-76
2023/03/29 06:27:37;;;;;;;;;;;;;;;;;;5072149;28;19912;-76
2023/03/29 06:30:03;;;;;;;;;;;;;;;;;;5081915;28;19943;-77
2023/03/29 06:32:29;;;;;;;;;;;;;;;;;;5067981;28;19912;-78
2023/03/29 06:35:03;;;;;;;;;;;;;;;;;;5071690;28;19920;-78
2023/03/29 06:40:44;;;;;;;;;;;;;;;;;;5080958;28;20032;-77
2023/03/29 06:43:10;;;;;;;;;;;;;;;;;;5069823;28;19919;-81
2023/03/29 06:45:35;;;;;;;;;;;;;;;;;;5089948;28;19969;-81
2023/03/29 06:48:04;;;;;;;;;;;;;;;;;;5086241;28;19916;-75
2023/03/29 06:50:29;;;;;;;;;;;;;;;;;;5088006;28;20210;-80
2023/03/29 06:53:02;;;;;;;;;;;;;;;;;;5088797;28;19912;-84
2023/03/29 06:55:28;;;;;;;;;;;;;;;;;;5052868;28;19930;-81
2023/03/29 06:57:55;;;;;;;;;;;;;;;;;;5051940;28;19919;-83
2023/03/29 07:00:26;;;;;;;;;;;;;;;;;;5063421;28;19920;-82
2023/03/29 07:03:12;;;;;;;;;;;;;;;;;;5073734;28;19908;-84
2023/03/29 07:05:39;;;;;;;;;;;;;;;;;;5071738;28;19919;-82
2023/03/29 07:10:42;;;;;;;;;;;;;;;;;;5068529;28;20015;-82
2023/03/29 07:13:26;;;;;;;;;;;;;;;;;;5089795;28;19938;-82
2023/03/29 07:15:53;;;;;;;;;;;;;;;;;;5045833;28;19924;-82
2023/03/29 07:18:37;;;;;;;;;;;;;;;;;;5064007;28;19916;-85
2023/03/29 07:21:03;;;;;;;;;;;;;;;;;;5049724;28;19982;-81
2023/03/29 07:23:28;;;;;;;;;;;;;;;;;;5080665;28;19918;-82
2023/03/29 07:25:54;;;;;;;;;;;;;;;;;;5075179;28;20015;-82
2023/03/29 07:28:20;;;;;;;;;;;;;;;;;;5063547;28;19916;-78
2023/03/29 07:30:45;;;;;;;;;;;;;;;;;;5054784;28;19916;-82
2023/03/29 07:33:16;;;;;;;;;;;;;;;;;;5049996;28;19919;-81
2023/03/29 07:36:08;;;;;;;;;;;;;;;;;;5067838;28;19951;-81
2023/03/29 07:38:35;;;;;;;;;;;;;;;;;;5066896;28;19963;-86
2023/03/29 07:41:05;;;;;;;;;;;;;;;;;;5069265;28;20014;-82
2023/03/29 07:43:41;;;;;;;;;;;;;;;;;;5076878;28;20007;-82
2023/03/29 07:46:08;;;;;;;;;;;;;;;;;;5084553;28;20610;-83
2023/03/29 07:48:35;;;;;;;;;;;;;;;;;;5058713;28;19926;-80
2023/03/29 07:51:04;;;;;;;;;;;;;;;;;;5050824;28;19959;-81
2023/03/29 07:53:38;;;;;;;;;;;;;;;;;;5035874;28;19934;-81
2023/03/29 07:56:10;;;;;;;;;;;;;;;;;;5063674;28;20389;-81
2023/03/29 07:58:45;;;;;;;;;;;;;;;;;;5069597;28;20425;-71
2023/03/29 08:01:14;;;;;;;;;;;;;;;;;;5069149;28;20002;-72
2023/03/29 08:04:14;;;;;;;;;;;;;;;;;;5006870;28;20017;-72
2023/03/29 08:06:58;;;;;;;;;;;;;;;;;;5079368;28;19938;-73
2023/03/29 08:09:33;;;;;;;;;;;;;;;;;;5072194;28;19921;-73
2023/03/29 08:11:58;;;;;;;;;;;;;;;;;;5051947;28;19913;-72
2023/03/29 08:14:30;;;;;;;;;;;;;;;;;;5067580;28;19930;-72
2023/03/29 08:17:15;;;;;;;;;;;;;;;;;;5086221;28;20379;-73
2023/03/29 08:19:45;;;;;;;;;;;;;;;;;;5070541;28;20317;-72
2023/03/29 08:22:12;;;;;;;;;;;;;;;;;;5069755;28;19912;-75
2023/03/29 08:25:04;;;;;;;;;;;;;;;;;;5070515;28;20332;-72
2023/03/29 08:27:34;;;;;;;;;;;;;;;;;;5070627;28;20393;-73
2023/03/29 08:29:59;;;;;;;;;;;;;;;;;;5070743;28;19911;-73
2023/03/29 08:32:25;;;;;;;;;;;;;;;;;;5088648;28;20260;-73
2023/03/29 08:34:50;;;;;;;;;;;;;;;;;;5053680;28;19911;-73
2023/03/29 08:37:20;;;;;;;;;;;;;;;;;;5070323;28;20379;-74
2023/03/29 08:39:47;;;;;;;;;;;;;;;;;;5070391;28;19912;-73
2023/03/29 08:42:41;;;;;;;;;;;;;;;;;;5061989;28;19927;-74
2023/03/29 08:45:07;;;;;;;;;;;;;;;;;;5068501;28;19995;-73
2023/03/29 08:47:33;;;;;;;;;;;;;;;;;;5049886;28;19921;-72
2023/03/29 08:49:58;;;;;;;;;;;;;;;;;;5040843;28;19916;-73
2023/03/29 08:52:31;;;;;;;;;;;;;;;;;;5065567;28;19915;-75
2023/03/29 08:55:00;;;;;;;;;;;;;;;;;;5070087;28;20760;-72
2023/03/29 08:57:26;;;;;;;;;;;;;;;;;;5087656;28;19912;-74
2023/03/29 08:59:55;;;;;;;;;;;;;;;;;;5087103;28;20359;-76
2023/03/29 09:02:21;;;;;;;;;;;;;;;;;;5089134;28;19919;-77
2023/03/29 09:04:49;;;;;;;;;;;;;;;;;;5091041;28;19912;-79
2023/03/29 09:07:33;;;;;;;;;;;;;;;;;;5075929;28;19924;-76
2023/03/29 09:09:59;;;;;;;;;;;;;;;;;;5090596;28;19912;-76
2023/03/29 09:12:36;;;;;;;;;;;;;;;;;;5085960;28;19923;-74
2023/03/29 09:15:01;;;;;;;;;;;;;;;;;;5089921;28;19915;-75
2023/03/29 09:17:27;;;;;;;;;;;;;;;;;;5079351;28;19919;-75
2023/03/29 09:19:52;;;;;;;;;;;;;;;;;;5072608;28;20310;-75
2023/03/29 09:22:17;;;;;;;;;;;;;;;;;;5072748;28;20011;-76
2023/03/29 09:24:42;;;;;;;;;;;;;;;;;;5073712;28;20430;-74
2023/03/29 09:27:13;;;;;;;;;;;;;;;;;;5070162;28;19927;-76
2023/03/29 09:29:42;;;;;;;;;;;;;;;;;;5040883;28;20541;-75
2023/03/29 09:32:08;;;;;;;;;;;;;;;;;;5040228;28;19947;-74
2023/03/29 09:34:33;;;;;;;;;;;;;;;;;;5071051;28;19970;-74
2023/03/29 09:37:03;;;;;;;;;;;;;;;;;;5053707;28;19908;-75
2023/03/29 09:39:28;;;;;;;;;;;;;;;;;;5070208;28;19912;-77
2023/03/29 09:42:07;;;;;;;;;;;;;;;;;;5069828;28;19991;-76
2023/03/29 09:44:32;;;;;;;;;;;;;;;;;;5088087;28;20011;-76
2023/03/29 09:47:04;;;;;;;;;;;;;;;;;;5091157;28;19993;-74
2023/03/29 09:49:31;;;;;;;;;;;;;;;;;;5071940;28;19916;-74
2023/03/29 09:51:56;;;;;;;;;;;;;;;;;;5053944;28;19912;-73
2023/03/29 09:54:22;;;;;;;;;;;;;;;;;;5070813;28;20011;-72
2023/03/29 09:57:07;;;;;;;;;;;;;;;;;;5072063;28;19912;-72
2023/03/29 09:59:32;;;;;;;;;;;;;;;;;;5091078;28;19968;-75
2023/03/29 10:01:58;;;;;;;;;;;;;;;;;;5073101;28;19926;-74
2023/03/29 10:04:24;;;;;;;;;;;;;;;;;;5072983;28;20356;-75
2023/03/29 10:06:55;;;;;;;;;;;;;;;;;;5072088;28;20387;-71
2023/03/29 10:09:20;;;;;;;;;;;;;;;;;;5071851;28;19951;-76
2023/03/29 10:11:47;;;;;;;;;;;;;;;;;;5052715;28;20312;-73
2023/03/29 10:14:13;;;;;;;;;;;;;;;;;;5085692;28;19935;-74
2023/03/29 10:16:38;;;;;;;;;;;;;;;;;;5067844;28;19912;-74
2023/03/29 10:19:03;;;;;;;;;;;;;;;;;;5052306;28;20371;-74
2023/03/29 10:21:29;;;;;;;;;;;;;;;;;;5075967;28;19951;-76
2023/03/29 10:23:54;;;;;;;;;;;;;;;;;;5090338;28;20343;-77
2023/03/29 10:26:19;;;;;;;;;;;;;;;;;;5072379;28;19966;-76
2023/03/29 10:28:45;;;;;;;;;;;;;;;;;;5090365;28;19923;-78
2023/03/29 10:31:10;;;;;;;;;;;;;;;;;;5089266;28;19912;-76
2023/03/29 10:33:36;;;;;;;;;;;;;;;;;;5087489;28;19919;-75
2023/03/29 10:36:01;;;;;;;;;;;;;;;;;;5036661;28;19920;-76
2023/03/29 10:38:27;;;;;;;;;;;;;;;;;;5082047;28;19912;-76
2023/03/29 10:40:52;;;;;;;;;;;;;;;;;;5071800;28;19919;-76
2023/03/29 10:43:17;;;;;;;;;;;;;;;;;;5071319;28;20321;-76
2023/03/29 10:45:42;;;;;;;;;;;;;;;;;;5089922;28;19920;-75
2023/03/29 10:48:08;;;;;;;;;;;;;;;;;;5072130;28;19912;-76
2023/03/29 10:50:33;;;;;;;;;;;;;;;;;;5090569;28;20375;-76
2023/03/29 10:56:08;;;;;;;;;;;;;;;;;;5084375;28;19926;-75
2023/03/29 10:58:33;;;;;;;;;;;;;;;;;;5090365;28;20336;-77
2023/03/29 11:00:59;;;;;;;;;;;;;;;;;;5088918;28;19916;-75
2023/03/29 11:03:24;;;;;;;;;;;;;;;;;;5086725;28;19948;-75
2023/03/29 11:05:49;;;;;;;;;;;;;;;;;;5055032;28;20330;-76
2023/03/29 11:08:15;;;;;;;;;;;;;;;;;;5046921;28;19966;-74
2023/03/29 11:10:40;;;;;;;;;;;;;;;;;;5068590;28;19920;-75
2023/03/29 11:13:07;;;;;;;;;;;;;;;;;;5065187;28;20263;-75
2023/03/29 11:15:32;;;;;;;;;;;;;;;;;;5089306;28;19915;-76
2023/03/29 11:17:57;;;;;;;;;;;;;;;;;;5069808;28;20248;-76
2023/03/29 11:20:22;;;;;;;;;;;;;;;;;;5084861;28;20415;-76
2023/03/29 11:22:48;;;;;;;;;;;;;;;;;;5083461;28;19934;-75
2023/03/29 11:25:13;;;;;;;;;;;;;;;;;;5070704;28;19917;-75
2023/03/29 11:27:39;;;;;;;;;;;;;;;;;;5071450;28;19926;-76
2023/03/29 11:30:05;;;;;;;;;;;;;;;;;;5085171;28;19959;-75
2023/03/29 11:32:30;;;;;;;;;;;;;;;;;;5079439;28;19955;-74
2023/03/29 11:34:56;;;;;;;;;;;;;;;;;;5088293;28;19990;-75
2023/03/29 11:37:21;;;;;;;;;;;;;;;;;;5066853;28;19916;-75
2023/03/29 11:39:46;;;;;;;;;;;;;;;;;;5071563;28;19908;-75
2023/03/29 11:42:11;;;;;;;;;;;;;;;;;;5070118;28;20633;-75
2023/03/29 11:44:37;;;;;;;;;;;;;;;;;;5088915;28;19961;-75
2023/03/29 11:47:02;;;;;;;;;;;;;;;;;;5070448;28;20446;-76
2023/03/29 11:49:28;;;;;;;;;;;;;;;;;;5069006;28;20363;-75
2023/03/29 11:51:54;;;;;;;;;;;;;;;;;;5087852;28;19916;-75
2023/03/29 11:54:19;;;;;;;;;;;;;;;;;;5082094;28;19951;-75
2023/03/29 11:56:45;;;;;;;;;;;;;;;;;;5076958;28;20441;-76
2023/03/29 11:59:11;;;;;;;;;;;;;;;;;;5085584;28;19912;-75
2023/03/29 12:01:37;;;;;;;;;;;;;;;;;;5087086;28;19912;-75
2023/03/29 12:04:02;;;;;;;;;;;;;;;;;;5052062;28;20301;-75
2023/03/29 12:06:28;;;;;;;;;;;;;;;;;;5086635;28;19919;-76
2023/03/29 12:08:53;;;;;;;;;;;;;;;;;;5075823;28;20439;-76
2023/03/29 12:11:20;;;;;;;;;;;;;;;;;;5069198;28;19919;-75
2023/03/29 12:13:45;;;;;;;;;;;;;;;;;;5068801;28;19926;-77
2023/03/29 12:16:10;;;;;;;;;;;;;;;;;;5087343;28;20281;-77
2023/03/29 12:18:36;;;;;;;;;;;;;;;;;;5085903;28;20378;-76
2023/03/29 12:21:01;;;;;;;;;;;;;;;;;;5087308;28;19918;-76
2023/03/29 12:23:29;;;;;;;;;;;;;;;;;;5068800;28;20302;-75
2023/03/29 12:25:54;;;;;;;;;;;;;;;;;;5083687;28;19920;-76
2023/03/29 12:28:19;;;;;;;;;;;;;;;;;;5083401;28;20575;-75
2023/03/29 12:30:45;;;;;;;;;;;;;;;;;;5086180;28;20382;-75
2023/03/29 12:33:10;;;;;;;;;;;;;;;;;;5064790;28;20689;-76
2023/03/29 12:35:44;;;;;;;;;;;;;;;;;;5069895;28;19916;-77
2023/03/29 12:38:30;;;;;;;;;;;;;;;;;;5073225;28;19920;-77
2023/03/29 12:41:14;;;;;;;;;;;;;;;;;;5072010;28;19926;-76
2023/03/29 12:43:52;;;;;;;;;;;;;;;;;;5071728;28;19918;-75
2023/03/29 12:46:20;;;;;;;;;;;;;;;;;;5078026;28;19926;-75
2023/03/29 12:48:45;;;;;;;;;;;;;;;;;;5092255;28;19912;-76
2023/03/29 12:51:11;;;;;;;;;;;;;;;;;;5092157;28;19908;-76
2023/03/29 12:53:36;;;;;;;;;;;;;;;;;;5073910;28;19934;-76
2023/03/29 12:56:02;;;;;;;;;;;;;;;;;;5074171;28;19962;-76
2023/03/29 12:58:27;;;;;;;;;;;;;;;;;;5091778;28;19923;-75
2023/03/29 13:00:52;;;;;;;;;;;;;;;;;;5090517;28;19922;-74
2023/03/29 13:03:18;;;;;;;;;;;;;;;;;;5037039;28;19912;-76
2023/03/29 13:05:43;;;;;;;;;;;;;;;;;;5071880;28;19970;-75
2023/03/29 13:08:08;;;;;;;;;;;;;;;;;;5085983;28;19912;-77
2023/03/29 13:10:34;;;;;;;;;;;;;;;;;;5092416;28;19915;-77
2023/03/29 13:12:59;;;;;;;;;;;;;;;;;;5092140;28;20455;-76
2023/03/29 13:15:25;;;;;;;;;;;;;;;;;;5092436;28;20370;-77
2023/03/29 13:17:50;;;;;;;;;;;;;;;;;;5092291;28;19912;-76
2023/03/29 13:20:15;;;;;;;;;;;;;;;;;;5092236;28;19912;-76
2023/03/29 13:22:40;;;;;;;;;;;;;;;;;;5091866;28;19912;-76
2023/03/29 13:25:06;;;;;;;;;;;;;;;;;;5091703;28;19911;-76
2023/03/29 13:27:33;;;;;;;;;;;;;;;;;;5056620;28;19920;-76
2023/03/29 13:29:58;;;;;;;;;;;;;;;;;;5091818;28;20310;-76
2023/03/29 13:32:25;;;;;;;;;;;;;;;;;;5091581;28;19916;-75
2023/03/29 13:34:51;;;;;;;;;;;;;;;;;;5071578;28;19916;-76
2023/03/29 13:37:16;;;;;;;;;;;;;;;;;;5089670;28;19912;-76
2023/03/29 13:39:41;;;;;;;;;;;;;;;;;;5090073;28;19973;-75
2023/03/29 13:42:07;;;;;;;;;;;;;;;;;;5089501;28;20427;-75
2023/03/29 13:44:33;;;;;;;;;;;;;;;;;;5072114;28;19908;-75
2023/03/29 13:46:58;;;;;;;;;;;;;;;;;;5089412;28;19919;-75
2023/03/29 13:49:23;;;;;;;;;;;;;;;;;;5072676;28;20345;-75
2023/03/29 13:51:48;;;;;;;;;;;;;;;;;;5076810;28;19965;-75
2023/03/29 13:54:14;;;;;;;;;;;;;;;;;;5077021;28;19935;-76
2023/03/29 13:56:39;;;;;;;;;;;;;;;;;;5093245;28;20387;-75
2023/03/29 13:59:05;;;;;;;;;;;;;;;;;;5073912;28;19951;-76
2023/03/29 14:01:30;;;;;;;;;;;;;;;;;;5091823;28;20064;-76
2023/03/29 14:03:56;;;;;;;;;;;;;;;;;;5073471;28;19912;-75
2023/03/29 14:06:21;;;;;;;;;;;;;;;;;;5073380;28;19912;-76
2023/03/29 14:08:47;;;;;;;;;;;;;;;;;;5091384;28;19965;-75
2023/03/29 14:11:12;;;;;;;;;;;;;;;;;;5091229;28;20322;-75
2023/03/29 14:13:37;;;;;;;;;;;;;;;;;;5091481;28;19908;-75
2023/03/29 14:16:03;;;;;;;;;;;;;;;;;;5091295;28;19927;-76
2023/03/29 14:18:29;;;;;;;;;;;;;;;;;;5073638;28;20375;-75
2023/03/29 14:20:54;;;;;;;;;;;;;;;;;;5091412;28;19916;-76
2023/03/29 14:23:20;;;;;;;;;;;;;;;;;;5091546;28;19938;-76
2023/03/29 14:25:45;;;;;;;;;;;;;;;;;;5091028;28;19951;-76
2023/03/29 14:28:11;;;;;;;;;;;;;;;;;;5091033;28;20295;-76
2023/03/29 14:30:36;;;;;;;;;;;;;;;;;;5090759;28;19912;-75
2023/03/29 14:33:03;;;;;;;;;;;;;;;;;;5091127;28;20517;-76
2023/03/29 14:35:29;;;;;;;;;;;;;;;;;;5090871;28;19939;-76
2023/03/29 14:37:55;;;;;;;;;;;;;;;;;;5090684;28;19951;-76
2023/03/29 14:40:20;;;;;;;;;;;;;;;;;;5090714;28;19916;-75
2023/03/29 14:42:46;;;;;;;;;;;;;;;;;;5090135;28;19908;-76
2023/03/29 14:45:11;;;;;;;;;;;;;;;;;;5070389;28;19912;-76
2023/03/29 14:47:39;;;;;;;;;;;;;;;;;;5080840;28;20386;-75
2023/03/29 14:50:04;;;;;;;;;;;;;;;;;;5072918;28;19912;-76
2023/03/29 14:52:30;;;;;;;;;;;;;;;;;;5084854;28;19958;-76
2023/03/29 14:54:55;;;;;;;;;;;;;;;;;;5073590;28;19947;-75
2023/03/29 14:57:20;;;;;;;;;;;;;;;;;;5052695;28;19912;-75
2023/03/29 14:59:46;;;;;;;;;;;;;;;;;;5088844;28;19916;-76
2023/03/29 15:02:11;;;;;;;;;;;;;;;;;;5079525;28;19923;-76
2023/03/29 15:04:37;;;;;;;;;;;;;;;;;;5090320;28;19938;-76
2023/03/29 15:07:03;;;;;;;;;;;;;;;;;;5090141;28;20365;-76
2023/03/29 15:09:29;;;;;;;;;;;;;;;;;;5067263;28;20010;-75
2023/03/29 15:11:54;;;;;;;;;;;;;;;;;;5072394;28;20372;-75
2023/03/29 15:14:20;;;;;;;;;;;;;;;;;;5090243;28;20388;-76
2023/03/29 15:16:46;;;;;;;;;;;;;;;;;;5090638;28;19908;-76
2023/03/29 15:19:11;;;;;;;;;;;;;;;;;;5090665;28;19912;-76
2023/03/29 15:21:36;;;;;;;;;;;;;;;;;;5090195;28;19915;-76
2023/03/29 15:24:02;;;;;;;;;;;;;;;;;;5090427;28;20674;-76
2023/03/29 15:26:27;;;;;;;;;;;;;;;;;;5089843;28;19965;-76
2023/03/29 15:28:59;;;;;;;;;;;;;;;;;;5071797;28;19935;-75
2023/03/29 15:31:25;;;;;;;;;;;;;;;;;;5071766;28;20440;-77
2023/03/29 15:33:50;;;;;;;;;;;;;;;;;;5075070;28;19952;-75
2023/03/29 15:36:15;;;;;;;;;;;;;;;;;;5069558;28;20007;-75
2023/03/29 15:38:41;;;;;;;;;;;;;;;;;;5069301;28;19912;-76
2023/03/29 15:41:07;;;;;;;;;;;;;;;;;;5069987;28;19916;-75
2023/03/29 15:43:33;;;;;;;;;;;;;;;;;;5069344;28;20353;-75
2023/03/29 15:45:58;;;;;;;;;;;;;;;;;;5069642;28;19916;-76
2023/03/29 15:48:24;;;;;;;;;;;;;;;;;;5069939;28;19935;-76
2023/03/29 15:50:50;;;;;;;;;;;;;;;;;;5069469;28;20286;-76
2023/03/29 15:53:24;;;;;;;;;;;;;;;;;;5051136;28;19912;-76
2023/03/29 15:55:50;;;;;;;;;;;;;;;;;;5076533;28;19912;-76
2023/03/29 15:58:15;;;;;;;;;;;;;;;;;;5068855;28;19912;-77
2023/03/29 16:00:41;;;;;;;;;;;;;;;;;;5068946;28;19913;-76
2023/03/29 16:03:06;;;;;;;;;;;;;;;;;;5070648;28;19912;-77
2023/03/29 16:05:31;;;;;;;;;;;;;;;;;;5072166;28;19916;-76
2023/03/29 16:07:57;;;;;;;;;;;;;;;;;;5054284;28;19995;-75
2023/03/29 16:10:22;;;;;;;;;;;;;;;;;;5053005;28;19917;-77
2023/03/29 16:12:47;;;;;;;;;;;;;;;;;;5069180;28;20394;-77